Time;durP1;ratioP1;P1;durP2;ratioP2;P2;SDS_P1;SDS_P2;PMS_P1;PMS_P2;Temp;Humidity;BMP_temperature;BMP_pressure;BME280_temperature;BME280_humidity;BME280_pressure;Samples;Min_cycle;Max_cycle;Signal;HPM_P1;HPM_P2
2022/06/27 00:00:38;;;;;;;;;;;;;;;-144.99;68.83;52244.28;5105629;28;20194;-77
2022/06/27 00:03:06;;;;;;;;;;;;;;;-144.99;69.02;52244.28;5105122;28;19924;-72
2022/06/27 00:05:33;;;;;;;;;;;;;;;-144.99;69.22;52244.28;5100493;28;19920;-77
2022/06/27 00:08:00;;;;;;;;;;;;;;;-144.99;69.29;52272.81;5104856;28;20367;-78
2022/06/27 00:10:26;;;;;;;;;;;;;;;-144.99;69.42;52232.03;5102846;28;19935;-79
2022/06/27 00:12:53;;;;;;;;;;;;;;;-144.99;69.60;52232.03;5102014;28;19920;-79
2022/06/27 00:15:19;;;;;;;;;;;;;;;-144.99;69.79;52244.28;5106437;28;20359;-79
2022/06/27 00:17:46;;;;;;;;;;;;;;;-144.99;70.10;52232.03;5104069;28;20128;-79
2022/06/27 00:20:14;;;;;;;;;;;;;;;-144.99;70.19;52256.50;5100985;22;19932;-70
2022/06/27 00:22:40;;;;;;;;;;;;;;;-144.99;70.43;52248.34;5074236;28;19993;-70
2022/06/27 00:25:08;;;;;;;;;;;;;;;-144.99;70.71;52227.97;5067710;28;19933;-72
2022/06/27 00:27:34;;;;;;;;;;;;;;;-144.99;71.01;52223.88;5072294;28;19921;-70
2022/06/27 00:30:01;;;;;;;;;;;;;;;-144.99;71.31;52276.88;5076868;28;20294;-70
2022/06/27 00:32:29;;;;;;;;;;;;;;;-144.99;71.56;52248.34;5073956;28;20391;-71
2022/06/27 00:34:55;;;;;;;;;;;;;;;-144.99;71.71;52195.34;5072885;28;19924;-71
2022/06/27 00:37:24;;;;;;;;;;;;;;;-144.99;72.33;52227.97;5074090;28;19984;-71
2022/06/27 00:39:50;;;;;;;;;;;;;;;-144.99;72.33;52232.03;5075415;28;20310;-71
2022/06/27 00:42:17;;;;;;;;;;;;;;;-144.99;72.73;52248.34;5072088;28;19965;-71
2022/06/27 00:44:44;;;;;;;;;;;;;;;-144.99;73.01;52236.13;5070390;28;20390;-70
2022/06/27 00:47:12;;;;;;;;;;;;;;;-144.99;73.38;52232.03;5077760;28;19920;-69
2022/06/27 00:49:39;;;;;;;;;;;;;;;-144.99;73.64;52264.66;5073507;28;19928;-73
2022/06/27 00:52:07;;;;;;;;;;;;;;;-144.99;74.07;52211.66;5077994;28;19921;-72
2022/06/27 00:54:35;;;;;;;;;;;;;;;-144.99;74.59;52285.03;5072756;28;19920;-71
2022/06/27 00:57:02;;;;;;;;;;;;;;;-144.99;74.87;52215.75;5082150;28;19924;-70
2022/06/27 00:59:28;;;;;;;;;;;;;;;-144.99;75.06;52232.03;5081210;28;19953;-72
2022/06/27 01:01:55;;;;;;;;;;;;;;;-144.99;75.68;52268.72;5087025;28;19920;-71
2022/06/27 01:04:21;;;;;;;;;;;;;;;-144.99;75.99;52264.66;5081066;28;19936;-72
2022/06/27 01:06:49;;;;;;;;;;;;;;;-144.99;76.58;52232.03;5085781;28;19936;-72
2022/06/27 01:09:16;;;;;;;;;;;;;;;-144.99;76.88;52201.47;5080127;28;20279;-73
2022/06/27 01:11:44;;;;;;;;;;;;;;;-144.99;77.06;52227.97;5077525;28;20401;-71
2022/06/27 01:14:11;;;;;;;;;;;;;;;-144.99;77.48;52240.19;5083114;28;19920;-73
2022/06/27 01:16:38;;;;;;;;;;;;;;;-144.99;77.29;52244.28;5087058;28;19928;-72
2022/06/27 01:19:04;;;;;;;;;;;;;;;-144.99;77.72;52244.28;5092887;28;19928;-74
2022/06/27 01:21:32;;;;;;;;;;;;;;;-144.99;78.18;52227.97;5087914;28;20295;-71
2022/06/27 01:24:00;;;;;;;;;;;;;;;-144.99;79.87;52191.28;5076068;28;19928;-72
2022/06/27 01:26:26;;;;;;;;;;;;;;;-144.99;83.82;52209.63;5078548;28;19921;-74
2022/06/27 01:28:53;;;;;;;;;;;;;;;-144.99;88.88;52293.19;5078650;28;19936;-73
2022/06/27 01:31:19;;;;;;;;;;;;;;;-144.99;94.03;52285.03;5076277;28;19963;-70
2022/06/27 01:33:46;;;;;;;;;;;;;;;-144.99;97.84;52244.28;5076061;28;19936;-73
2022/06/27 01:38:56;;;;;;;;;;;;;;;-144.99;99.43;52240.19;5085273;28;19931;-73
2022/06/27 01:41:24;;;;;;;;;;;;;;;-144.99;100.00;52244.28;5074748;28;20057;-72
2022/06/27 01:43:51;;;;;;;;;;;;;;;-144.99;100.00;52248.34;5078848;28;19920;-73
2022/06/27 01:46:18;;;;;;;;;;;;;;;-144.99;100.00;52280.97;5082042;28;19973;-72
2022/06/27 01:48:44;;;;;;;;;;;;;;;-144.99;100.00;52285.03;5078083;28;19920;-74
2022/06/27 01:51:11;;;;;;;;;;;;;;;-144.99;100.00;52223.88;5075858;28;19924;-74
2022/06/27 01:53:38;;;;;;;;;;;;;;;-144.99;100.00;52248.34;5076658;28;20276;-73
2022/06/27 01:56:05;;;;;;;;;;;;;;;-144.99;100.00;52260.56;5080095;28;19920;-73
2022/06/27 01:58:34;;;;;;;;;;;;;;;-144.99;100.00;52248.34;5080688;28;20348;-74
2022/06/27 02:01:01;;;;;;;;;;;;;;;-144.99;100.00;52248.34;5073918;28;19970;-72
2022/06/27 02:03:27;;;;;;;;;;;;;;;-144.99;100.00;52240.19;5073790;28;19973;-73
2022/06/27 02:05:54;;;;;;;;;;;;;;;-144.99;100.00;52256.50;5076748;28;19924;-75
2022/06/27 02:08:22;;;;;;;;;;;;;;;-144.99;100.00;52232.03;5067770;28;21059;-71
2022/06/27 02:10:49;;;;;;;;;;;;;;;-144.99;100.00;52276.88;5061163;28;19928;-74
2022/06/27 02:13:15;;;;;;;;;;;;;;;-144.99;100.00;52260.56;5077989;28;19932;-77
2022/06/27 02:15:57;;;;;;;;;;;;;;;-144.99;100.00;52242.22;5071106;28;19936;-74
2022/06/27 02:18:25;;;;;;;;;;;;;;;-144.99;100.00;52276.88;5082294;28;21175;-75
2022/06/27 02:20:52;;;;;;;;;;;;;;;-144.99;100.00;52272.81;5076482;28;19920;-74
2022/06/27 02:23:18;;;;;;;;;;;;;;;-144.99;100.00;52264.66;5073846;28;20019;-75
2022/06/27 02:25:46;;;;;;;;;;;;;;;-144.99;100.00;52272.81;5076603;28;20368;-73
2022/06/27 02:28:13;;;;;;;;;;;;;;;-144.99;100.00;52256.50;5078425;28;19938;-74
2022/06/27 02:30:39;;;;;;;;;;;;;;;-144.99;100.00;52256.50;5073728;28;20575;-75
2022/06/27 02:33:06;;;;;;;;;;;;;;;-144.99;100.00;52246.31;5077166;28;20002;-74
2022/06/27 02:35:33;;;;;;;;;;;;;;;-144.99;100.00;52276.88;5076708;28;19916;-73
2022/06/27 02:38:01;;;;;;;;;;;;;;;-144.99;100.00;52219.81;5079545;28;20010;-75
2022/06/27 02:40:29;;;;;;;;;;;;;;;-144.99;100.00;52260.56;5072416;28;19916;-74
2022/06/27 02:42:57;;;;;;;;;;;;;;;-144.99;100.00;52256.50;5072702;28;19924;-74
2022/06/27 02:45:23;;;;;;;;;;;;;;;-144.99;100.00;52280.97;5073656;28;19940;-75
2022/06/27 02:47:50;;;;;;;;;;;;;;;-144.99;100.00;52305.41;5075136;28;19920;-74
2022/06/27 02:50:16;;;;;;;;;;;;;;;-144.99;100.00;52236.13;5068523;28;19924;-73
2022/06/27 02:52:47;;;;;;;;;;;;;;;-144.99;100.00;52246.31;5067036;28;19977;-73
2022/06/27 02:55:15;;;;;;;;;;;;;;;-144.99;100.00;52305.41;5069695;28;20354;-75
2022/06/27 02:57:45;;;;;;;;;;;;;;;-144.99;100.00;52276.88;5070926;28;19975;-75
2022/06/27 03:00:12;;;;;;;;;;;;;;;-144.99;100.00;52244.28;5070867;28;19943;-74
2022/06/27 03:02:39;;;;;;;;;;;;;;;-144.99;100.00;52301.34;5078349;28;19920;-73
2022/06/27 03:05:06;;;;;;;;;;;;;;;-144.99;100.00;52262.63;5078013;28;19999;-73
2022/06/27 03:07:37;;;;;;;;;;;;;;;-144.99;100.00;52321.72;5072294;28;19930;-74
2022/06/27 03:10:05;;;;;;;;;;;;;;;-144.99;100.00;52319.69;5062905;28;19924;-72
2022/06/27 03:12:31;;;;;;;;;;;;;;;-144.99;100.00;52285.03;5069478;28;19974;-72
2022/06/27 03:14:58;;;;;;;;;;;;;;;-144.99;100.00;52256.50;5071124;28;19920;-72
2022/06/27 03:17:24;;;;;;;;;;;;;;;-144.99;100.00;52297.25;5077581;28;19928;-72
2022/06/27 03:19:51;;;;;;;;;;;;;;;-144.99;100.00;52289.13;5072919;28;20332;-73
2022/06/27 03:22:17;;;;;;;;;;;;;;;-144.99;100.00;52278.91;5071550;28;20011;-73
2022/06/27 03:24:44;;;;;;;;;;;;;;;-144.99;100.00;52240.19;5078690;28;20353;-73
2022/06/27 03:27:12;;;;;;;;;;;;;;;-144.99;100.00;52240.19;5071538;28;20158;-72
2022/06/27 03:29:38;;;;;;;;;;;;;;;-144.99;100.00;52252.44;5072791;28;20385;-73
2022/06/27 03:32:05;;;;;;;;;;;;;;;-144.99;100.00;52264.66;5073672;28;20357;-74
2022/06/27 03:34:32;;;;;;;;;;;;;;;-144.99;100.00;52268.72;5072034;28;19965;-73
2022/06/27 03:36:58;;;;;;;;;;;;;;;-144.99;100.00;52287.06;5065887;28;20372;-73
2022/06/27 03:39:25;;;;;;;;;;;;;;;-144.99;100.00;52244.28;5067210;28;19921;-71
2022/06/27 03:41:52;;;;;;;;;;;;;;;-144.99;100.00;52240.19;5066932;28;19955;-72
2022/06/27 03:44:20;;;;;;;;;;;;;;;-144.99;100.00;52252.44;5068602;28;20019;-73
2022/06/27 03:46:46;;;;;;;;;;;;;;;-144.99;100.00;52236.13;5071505;28;19928;-71
2022/06/27 03:51:57;;;;;;;;;;;;;;;-144.99;100.00;52232.03;5071651;28;20046;-70
2022/06/27 03:54:23;;;;;;;;;;;;;;;-144.99;100.00;52268.72;5072078;28;20601;-70
2022/06/27 03:56:50;;;;;;;;;;;;;;;-144.99;100.00;52240.19;5061181;28;19924;-70
2022/06/27 03:59:16;;;;;;;;;;;;;;;-144.99;100.00;52266.69;5080823;28;19927;-70
2022/06/27 04:01:45;;;;;;;;;;;;;;;-144.99;100.00;52266.69;5069459;28;19924;-70
2022/06/27 04:04:12;;;;;;;;;;;;;;;-144.99;100.00;52221.84;5067694;28;19939;-70
2022/06/27 04:06:39;;;;;;;;;;;;;;;-144.99;100.00;52256.50;5070119;28;19927;-72
2022/06/27 04:09:05;;;;;;;;;;;;;;;-144.99;100.00;52295.22;5068832;28;19920;-70
2022/06/27 04:11:32;;;;;;;;;;;;;;;-144.99;100.00;52264.66;5067101;28;19921;-70
2022/06/27 04:13:58;;;;;;;;;;;;;;;-144.99;100.00;52240.19;5071853;28;19920;-72
2022/06/27 04:16:25;;;;;;;;;;;;;;;-144.99;100.00;52276.88;5076910;28;20021;-73
2022/06/27 04:18:54;;;;;;;;;;;;;;;-144.99;100.00;52285.03;5079557;28;19927;-70
2022/06/27 04:21:20;;;;;;;;;;;;;;;-144.99;100.00;52252.44;5073847;28;19931;-71
2022/06/27 04:23:47;;;;;;;;;;;;;;;-144.99;100.00;52260.56;5082761;28;19925;-70
2022/06/27 04:26:13;;;;;;;;;;;;;;;-144.99;100.00;52272.81;5077067;28;19924;-71
2022/06/27 04:28:40;;;;;;;;;;;;;;;-144.99;100.00;52309.50;5075805;28;19929;-69
2022/06/27 04:31:06;;;;;;;;;;;;;;;-144.99;100.00;52240.19;5077974;28;20024;-71
2022/06/27 04:33:33;;;;;;;;;;;;;;;-144.99;100.00;52236.13;5074813;28;20394;-71
2022/06/27 04:36:01;;;;;;;;;;;;;;;-144.99;100.00;52240.19;5076189;28;19920;-70
2022/06/27 04:38:28;;;;;;;;;;;;;;;-144.99;100.00;52232.03;5077481;28;19920;-69
2022/06/27 04:40:55;;;;;;;;;;;;;;;-144.99;100.00;52227.97;5074283;28;20350;-71
2022/06/27 04:43:22;;;;;;;;;;;;;;;-144.99;100.00;52252.44;5073642;28;20411;-70
2022/06/27 04:45:49;;;;;;;;;;;;;;;-144.99;100.00;52242.22;5076629;28;19924;-74
2022/06/27 04:48:16;;;;;;;;;;;;;;;-144.99;100.00;52227.97;5072399;28;20003;-74
2022/06/27 04:50:43;;;;;;;;;;;;;;;-144.99;100.00;52256.50;5075703;28;19924;-76
2022/06/27 04:53:11;;;;;;;;;;;;;;;-144.99;100.00;52242.22;5073477;28;19920;-78
2022/06/27 04:55:37;;;;;;;;;;;;;;;-144.99;100.00;52227.97;5070755;28;19928;-74
2022/06/27 04:58:04;;;;;;;;;;;;;;;-144.99;100.00;52236.13;5077374;28;20031;-73
2022/06/27 05:00:30;;;;;;;;;;;;;;;-144.99;100.00;52289.13;4372378;28;10000737;-72
2022/06/27 05:02:57;;;;;;;;;;;;;;;-144.99;100.00;52244.28;5066566;28;19967;-74
2022/06/27 05:05:23;;;;;;;;;;;;;;;-144.99;100.00;52268.72;5069567;28;20034;-75
2022/06/27 05:07:51;;;;;;;;;;;;;;;-144.99;100.00;52280.97;5069000;28;19932;-73
2022/06/27 05:10:19;;;;;;;;;;;;;;;-144.99;100.00;52227.97;5066029;28;20010;-74
2022/06/27 05:12:46;;;;;;;;;;;;;;;-144.99;100.00;52215.75;5068533;28;20035;-73
2022/06/27 05:15:13;;;;;;;;;;;;;;;-144.99;100.00;52256.50;5068810;28;20368;-74
2022/06/27 05:17:42;;;;;;;;;;;;;;;-144.99;100.00;52280.97;5069388;28;19931;-73
2022/06/27 05:20:09;;;;;;;;;;;;;;;-144.99;100.00;52236.13;5067447;28;19931;-74
2022/06/27 05:22:35;;;;;;;;;;;;;;;-144.99;100.00;52256.50;5065949;28;19952;-74
2022/06/27 05:25:02;;;;;;;;;;;;;;;-144.99;100.00;52256.50;5071228;28;19920;-76
2022/06/27 05:27:30;;;;;;;;;;;;;;;-144.99;100.00;52256.50;5070200;28;20058;-77
2022/06/27 05:29:56;;;;;;;;;;;;;;;-144.99;100.00;52264.66;5062840;28;19933;-74
2022/06/27 05:32:23;;;;;;;;;;;;;;;-144.99;100.00;52266.69;5067722;28;19924;-76
2022/06/27 05:34:50;;;;;;;;;;;;;;;-144.99;100.00;52260.56;5069731;28;20296;-75
2022/06/27 05:37:16;;;;;;;;;;;;;;;-144.99;100.00;52232.03;5068687;28;19932;-75
2022/06/27 05:39:45;;;;;;;;;;;;;;;-144.99;100.00;52252.44;5068630;28;20540;-73
2022/06/27 05:42:11;;;;;;;;;;;;;;;-144.99;100.00;52260.56;5069495;28;19925;-75
2022/06/27 05:44:40;;;;;;;;;;;;;;;-144.99;100.00;52256.50;5068958;28;20520;-75
2022/06/27 05:47:07;;;;;;;;;;;;;;;-144.99;100.00;52260.56;5063867;28;19920;-75
2022/06/27 05:49:34;;;;;;;;;;;;;;;-144.99;100.00;52244.28;5080380;28;19925;-75
2022/06/27 05:52:00;;;;;;;;;;;;;;;-144.99;100.00;52238.16;5072998;28;20148;-75
2022/06/27 05:54:27;;;;;;;;;;;;;;;-144.99;100.00;52242.22;5066811;28;19924;-74
2022/06/27 05:56:54;;;;;;;;;;;;;;;-144.99;100.00;52268.72;5067829;28;19933;-73
2022/06/27 05:59:21;;;;;;;;;;;;;;;-144.99;100.00;52268.72;5068908;28;19931;-72
2022/06/27 06:01:51;;;;;;;;;;;;;;;-144.99;100.00;52248.34;5063516;28;19935;-74
2022/06/27 06:04:18;;;;;;;;;;;;;;;-144.99;100.00;52268.72;5066519;28;19924;-73
2022/06/27 06:06:44;;;;;;;;;;;;;;;-144.99;100.00;52244.28;5068340;28;20256;-73
2022/06/27 06:09:13;;;;;;;;;;;;;;;-144.99;100.00;52236.13;5071377;28;19925;-75
2022/06/27 06:11:40;;;;;;;;;;;;;;;-144.99;100.00;52244.28;5067893;28;19924;-74
2022/06/27 06:14:08;;;;;;;;;;;;;;;-144.99;100.00;52252.44;5067475;28;19931;-74
2022/06/27 06:16:35;;;;;;;;;;;;;;;-144.99;100.00;52256.50;5067204;28;19931;-75
2022/06/27 06:19:03;;;;;;;;;;;;;;;-144.99;100.00;52264.66;5065794;28;19928;-75
2022/06/27 06:21:29;;;;;;;;;;;;;;;-144.99;100.00;52264.66;5069552;28;19978;-71
2022/06/27 06:23:57;;;;;;;;;;;;;;;-144.99;100.00;52268.72;5066834;28;19935;-73
2022/06/27 06:26:23;;;;;;;;;;;;;;;-144.99;100.00;52203.50;5067457;28;20383;-74
2022/06/27 06:28:51;;;;;;;;;;;;;;;-144.99;100.00;52268.72;5069647;28;20014;-73
2022/06/27 06:31:22;;;;;;;;;;;;;;;-144.99;100.00;52262.63;5063836;28;19924;-73
2022/06/27 06:33:50;;;;;;;;;;;;;;;-144.99;100.00;52236.13;5068790;28;19920;-74
2022/06/27 06:36:20;;;;;;;;;;;;;;;-144.99;100.00;52232.03;5066166;28;19924;-74
2022/06/27 06:38:47;;;;;;;;;;;;;;;-144.99;100.00;52246.31;5068959;28;19924;-75
2022/06/27 06:41:14;;;;;;;;;;;;;;;-144.99;100.00;52215.75;5068296;28;19920;-74
2022/06/27 06:43:41;;;;;;;;;;;;;;;-144.99;100.00;52248.34;5064698;28;19924;-73
2022/06/27 06:46:09;;;;;;;;;;;;;;;-144.99;100.00;52223.88;5068318;28;19920;-74
2022/06/27 06:48:37;;;;;;;;;;;;;;;-144.99;100.00;52232.03;5067833;28;20407;-73
2022/06/27 06:51:04;;;;;;;;;;;;;;;-144.99;100.00;52207.59;5068242;28;19935;-74
2022/06/27 06:53:32;;;;;;;;;;;;;;;-144.99;100.00;52240.19;5067346;28;19920;-72
2022/06/27 06:55:58;;;;;;;;;;;;;;;-144.99;100.00;52266.69;5070715;28;20340;-73
2022/06/27 06:58:26;;;;;;;;;;;;;;;-144.99;100.00;52230.00;5065743;28;19922;-76
2022/06/27 07:00:52;;;;;;;;;;;;;;;-144.99;100.00;52240.19;5075837;28;19966;-75
2022/06/27 07:03:20;;;;;;;;;;;;;;;-144.99;100.00;52209.63;5070479;28;20025;-73
2022/06/27 07:05:47;;;;;;;;;;;;;;;-144.99;100.00;52246.31;5069209;28;19966;-73
2022/06/27 07:08:13;;;;;;;;;;;;;;;-144.99;100.00;52203.50;5071629;28;19921;-73
2022/06/27 07:10:42;;;;;;;;;;;;;;;-144.99;100.00;52211.66;5072300;28;20342;-74
2022/06/27 07:13:10;;;;;;;;;;;;;;;-144.99;100.00;52289.13;5070533;28;19928;-74
2022/06/27 07:15:37;;;;;;;;;;;;;;;-144.99;100.00;52260.56;5068691;28;20391;-74
2022/06/27 07:18:04;;;;;;;;;;;;;;;-144.99;100.00;52219.81;5070135;28;19921;-73
2022/06/27 07:20:32;;;;;;;;;;;;;;;-144.99;100.00;52211.66;5070818;28;19977;-74
2022/06/27 07:22:59;;;;;;;;;;;;;;;-144.99;100.00;52276.88;5067672;28;20398;-73
2022/06/27 07:25:26;;;;;;;;;;;;;;;-144.99;100.00;52230.00;5064759;28;20422;-73
2022/06/27 07:27:55;;;;;;;;;;;;;;;-144.99;100.00;52211.66;5059510;28;20435;-73
2022/06/27 07:30:22;;;;;;;;;;;;;;;-144.99;100.00;52219.81;5067359;28;19939;-73
2022/06/27 07:32:49;;;;;;;;;;;;;;;-144.99;100.00;52272.81;5067856;28;19920;-72
2022/06/27 07:35:17;;;;;;;;;;;;;;;-144.99;100.00;52234.09;5069172;28;19966;-74
2022/06/27 07:37:48;;;;;;;;;;;;;;;-144.99;100.00;52215.75;5063331;28;20341;-73
2022/06/27 07:40:15;;;;;;;;;;;;;;;-144.99;100.00;52230.00;4717576;28;10000121;-73
2022/06/27 07:42:41;;;;;;;;;;;;;;;-144.99;100.00;52236.13;5066484;28;19955;-73
2022/06/27 07:45:11;;;;;;;;;;;;;;;-144.99;100.00;52219.81;5067407;28;20653;-73
2022/06/27 07:47:38;;;;;;;;;;;;;;;-144.99;100.00;52238.16;5065097;28;19931;-74
2022/06/27 07:50:05;;;;;;;;;;;;;;;-144.99;100.00;52223.88;5067195;28;19943;-74
2022/06/27 07:53:11;;;;;;;;;;;;;;;-144.99;100.00;52223.88;5066746;28;19928;-72
2022/06/27 07:55:19;;;;;;;;;;;;;;;-144.99;100.00;52240.19;5068622;28;19920;-73
2022/06/27 07:57:47;;;;;;;;;;;;;;;-144.99;100.00;52232.03;5066461;28;20222;-75
2022/06/27 08:00:15;;;;;;;;;;;;;;;-144.99;100.00;52268.72;5069038;28;20363;-72
2022/06/27 08:02:42;;;;;;;;;;;;;;;-144.99;100.00;52270.78;5066496;28;19982;-73
2022/06/27 08:05:09;;;;;;;;;;;;;;;-144.99;100.00;52236.13;5066040;28;19925;-72
2022/06/27 08:07:35;;;;;;;;;;;;;;;-144.99;100.00;52252.44;5066473;28;20387;-72
2022/06/27 08:10:02;;;;;;;;;;;;;;;-144.99;100.00;52252.44;5056970;28;19925;-73
2022/06/27 08:12:30;;;;;;;;;;;;;;;-144.99;100.00;52219.81;5066303;28;20282;-72
2022/06/27 08:14:57;;;;;;;;;;;;;;;-144.99;100.00;52240.19;5067190;28;19924;-73
2022/06/27 08:17:25;;;;;;;;;;;;;;;-144.99;100.00;52256.50;5059175;28;19925;-73
2022/06/27 08:19:51;;;;;;;;;;;;;;;-144.99;100.00;52260.56;5063105;28;19935;-73
2022/06/27 08:22:18;;;;;;;;;;;;;;;-144.99;100.00;52227.97;5066150;28;19930;-72
2022/06/27 08:24:44;;;;;;;;;;;;;;;-144.99;100.00;52236.13;5058341;28;19960;-73
2022/06/27 08:27:12;;;;;;;;;;;;;;;-144.99;100.00;52280.97;5065265;28;19956;-72
2022/06/27 08:29:41;;;;;;;;;;;;;;;-144.99;100.00;52215.75;5060537;28;19935;-73
2022/06/27 08:32:08;;;;;;;;;;;;;;;-144.99;100.00;52264.66;5065733;28;20307;-73
2022/06/27 08:34:36;;;;;;;;;;;;;;;-144.99;100.00;52227.97;5063399;28;19924;-74
2022/06/27 08:37:02;;;;;;;;;;;;;;;-144.99;100.00;52240.19;5063989;28;20290;-72
2022/06/27 08:39:29;;;;;;;;;;;;;;;-144.99;100.00;52232.03;5063679;28;20033;-74
2022/06/27 08:41:56;;;;;;;;;;;;;;;-144.99;100.00;52242.22;5066204;28;19921;-74
2022/06/27 08:44:23;;;;;;;;;;;;;;;-144.99;100.00;52242.22;5066459;28;20105;-72
2022/06/27 08:46:54;;;;;;;;;;;;;;;-144.99;100.00;52256.50;5066668;28;20014;-73
2022/06/27 08:49:22;;;;;;;;;;;;;;;-144.99;100.00;52207.59;5061040;28;19933;-71
2022/06/27 08:51:49;;;;;;;;;;;;;;;-144.99;100.00;52234.09;5063727;28;19920;-73
2022/06/27 08:54:16;;;;;;;;;;;;;;;-144.99;100.00;52240.19;5065770;28;19963;-73
2022/06/27 08:56:43;;;;;;;;;;;;;;;-144.99;100.00;52227.97;5063958;28;19924;-73
2022/06/27 08:59:10;;;;;;;;;;;;;;;-144.99;100.00;52232.03;5065442;28;19970;-72
2022/06/27 09:01:37;;;;;;;;;;;;;;;-144.99;100.00;52232.03;5062706;28;19925;-72
2022/06/27 09:04:06;;;;;;;;;;;;;;;-144.99;100.00;52240.19;5065929;28;19920;-73
2022/06/27 09:06:33;;;;;;;;;;;;;;;-144.99;100.00;52207.59;5066208;28;19959;-73
2022/06/27 09:09:09;;;;;;;;;;;;;;;-144.99;100.00;52209.63;5069456;28;19930;-73
2022/06/27 09:11:37;;;;;;;;;;;;;;;-144.99;100.00;52219.81;5056743;28;19921;-72
2022/06/27 09:14:05;;;;;;;;;;;;;;;-144.99;100.00;52236.13;5069752;28;19921;-73
2022/06/27 09:16:32;;;;;;;;;;;;;;;-144.99;100.00;52244.28;5067259;28;20148;-74
2022/06/27 09:18:59;;;;;;;;;;;;;;;-144.99;100.00;52221.84;5064475;28;19928;-72
2022/06/27 09:21:27;;;;;;;;;;;;;;;-144.99;100.00;52211.66;5069883;28;19924;-72
2022/06/27 09:23:54;;;;;;;;;;;;;;;-144.99;100.00;52195.34;5068514;28;19990;-73
2022/06/27 09:26:25;;;;;;;;;;;;;;;-144.99;100.00;52201.47;5068444;28;20334;-73
2022/06/27 09:28:53;;;;;;;;;;;;;;;-144.99;100.00;52236.13;5066274;28;19963;-76
2022/06/27 09:31:33;;;;;;;;;;;;;;;-144.99;100.00;52262.63;5068764;28;19936;-72
2022/06/27 09:34:12;;;;;;;;;;;;;;;-144.99;100.00;52250.38;5063272;28;19970;-73
2022/06/27 09:36:40;;;;;;;;;;;;;;;-144.99;100.00;52203.50;5067307;28;20334;-72
2022/06/27 09:39:11;;;;;;;;;;;;;;;-144.99;100.00;52260.56;5062676;28;20001;-73
2022/06/27 09:41:40;;;;;;;;;;;;;;;-144.99;100.00;52236.13;5067416;28;20384;-73
2022/06/27 09:44:10;;;;;;;;;;;;;;;-144.99;100.00;52240.19;5066939;28;19924;-72
2022/06/27 09:46:38;;;;;;;;;;;;;;;-144.99;100.00;52236.13;5066772;28;19924;-74
2022/06/27 09:49:07;;;;;;;;;;;;;;;-144.99;100.00;52276.88;5063658;28;19952;-73
2022/06/27 09:51:35;;;;;;;;;;;;;;;-144.99;100.00;52223.88;5065975;28;20071;-71
2022/06/27 09:54:08;;;;;;;;;;;;;;;-144.99;100.00;52234.09;5065664;28;20020;-73
2022/06/27 09:56:36;;;;;;;;;;;;;;;-144.99;100.00;52234.09;5068334;28;19970;-72
2022/06/27 09:59:04;;;;;;;;;;;;;;;-144.99;100.00;52219.81;5064637;28;19952;-75
2022/06/27 10:01:32;;;;;;;;;;;;;;;-144.99;100.00;52260.56;5064553;28;19924;-72
2022/06/27 10:04:00;;;;;;;;;;;;;;;-144.99;100.00;52227.97;5068204;28;19931;-74
2022/06/27 10:06:29;;;;;;;;;;;;;;;-144.99;100.00;52183.13;5065966;28;20009;-73
2022/06/27 10:08:55;;;;;;;;;;;;;;;-144.99;100.00;52205.53;5067600;28;20322;-72
2022/06/27 10:11:23;;;;;;;;;;;;;;;-144.99;100.00;52191.28;5062813;28;19924;-72
2022/06/27 10:14:11;;;;;;;;;;;;;;;-144.99;100.00;52240.19;5068516;28;19921;-75
2022/06/27 10:16:50;;;;;;;;;;;;;;;-144.99;100.00;52195.34;5066075;28;20279;-76
2022/06/27 10:19:16;;;;;;;;;;;;;;;-144.99;100.00;52193.31;5064156;28;20445;-74
2022/06/27 10:21:46;;;;;;;;;;;;;;;-144.99;100.00;52191.28;5067627;28;19924;-74
2022/06/27 10:24:34;;;;;;;;;;;;;;;-144.99;100.00;52207.59;5067247;28;19946;-73
2022/06/27 10:27:06;;;;;;;;;;;;;;;-144.99;100.00;52223.88;5064226;28;19921;-72
2022/06/27 10:29:46;;;;;;;;;;;;;;;-144.99;100.00;52197.41;5064846;28;20008;-73
2022/06/27 10:32:31;;;;;;;;;;;;;;;-144.99;100.00;52225.94;5062974;28;19956;-73
2022/06/27 10:35:24;;;;;;;;;;;;;;;-144.99;99.08;52215.75;5067970;28;19925;-73
2022/06/27 10:37:52;;;;;;;;;;;;;;;-144.99;98.96;52227.97;5062786;28;19932;-73
2022/06/27 10:40:51;;;;;;;;;;;;;;;-144.99;99.02;52238.16;5058548;28;19955;-72
2022/06/27 10:43:37;;;;;;;;;;;;;;;-144.99;99.46;52227.97;5066496;28;19928;-72
2022/06/27 10:46:26;;;;;;;;;;;;;;;-144.99;99.62;52227.97;5068941;28;20001;-72
2022/06/27 10:48:54;;;;;;;;;;;;;;;-144.99;99.95;52223.88;5064082;28;20144;-73
2022/06/27 10:51:21;;;;;;;;;;;;;;;-144.99;100.00;52232.03;5067614;28;19924;-73
2022/06/27 10:53:50;;;;;;;;;;;;;;;-144.99;100.00;52232.03;5067200;28;19928;-76
2022/06/27 10:56:33;;;;;;;;;;;;;;;-144.99;100.00;52256.50;5067502;28;19973;-74
2022/06/27 10:59:00;;;;;;;;;;;;;;;-144.99;100.00;52215.75;5060983;28;19921;-74
2022/06/27 11:01:27;;;;;;;;;;;;;;;-144.99;100.00;52270.78;5065792;28;19932;-74
2022/06/27 11:03:54;;;;;;;;;;;;;;;-144.99;100.00;52223.88;5066904;28;19978;-73
2022/06/27 11:06:21;;;;;;;;;;;;;;;-144.99;100.00;52248.34;5067651;28;19990;-74
2022/06/27 11:08:48;;;;;;;;;;;;;;;-144.99;100.00;52252.44;5067226;28;19920;-73
2022/06/27 11:11:17;;;;;;;;;;;;;;;-144.99;100.00;52256.50;5059042;28;19920;-73
2022/06/27 11:13:45;;;;;;;;;;;;;;;-144.99;100.00;52227.97;5065797;28;20029;-74
2022/06/27 11:16:15;;;;;;;;;;;;;;;-144.99;100.00;52256.50;5059631;28;19924;-74
2022/06/27 11:18:42;;;;;;;;;;;;;;;-144.99;100.00;52211.66;5065429;28;20017;-72
2022/06/27 11:21:09;;;;;;;;;;;;;;;-144.99;100.00;52240.19;5068296;28;19932;-74
2022/06/27 11:23:47;;;;;;;;;;;;;;;-144.99;100.00;52246.31;5067363;28;19928;-74
2022/06/27 11:26:14;;;;;;;;;;;;;;;-144.99;100.00;52260.56;5067231;28;19925;-74
2022/06/27 11:34:10;;;;;;;;;;;;;;;-144.99;100.00;52215.75;5066723;28;20073;-72
2022/06/27 11:36:39;;;;;;;;;;;;;;;-144.99;100.00;52240.19;5067015;28;19925;-74
2022/06/27 11:39:05;;;;;;;;;;;;;;;-144.99;100.00;52219.81;5065228;28;19924;-73
2022/06/27 11:41:32;;;;;;;;;;;;;;;-144.99;100.00;52205.53;5066331;28;19931;-72
2022/06/27 11:44:02;;;;;;;;;;;;;;;-144.99;100.00;52236.13;5066973;28;19971;-73
2022/06/27 11:46:32;;;;;;;;;;;;;;;-144.99;100.00;52227.97;5058693;28;20394;-72
2022/06/27 11:49:00;;;;;;;;;;;;;;;-144.99;100.00;52223.88;5063485;28;20371;-72
2022/06/27 11:51:28;;;;;;;;;;;;;;;-144.99;100.00;52227.97;5061129;28;19982;-71
2022/06/27 11:53:59;;;;;;;;;;;;;;;-144.99;100.00;52246.31;5065388;28;19932;-71
2022/06/27 11:56:27;;;;;;;;;;;;;;;-144.99;100.00;52260.56;5060974;28;19924;-71
2022/06/27 11:58:55;;;;;;;;;;;;;;;-144.99;100.00;52254.47;5065439;28;19956;-71
2022/06/27 12:01:23;;;;;;;;;;;;;;;-144.99;100.00;52203.50;5063027;28;19924;-73
2022/06/27 12:04:06;;;;;;;;;;;;;;;-144.99;100.00;52236.13;5064769;28;20310;-71
2022/06/27 12:06:32;;;;;;;;;;;;;;;-144.99;100.00;52215.75;5059987;28;20358;-72
2022/06/27 12:09:00;;;;;;;;;;;;;;;-144.99;100.00;52215.75;5063125;28;20391;-73
2022/06/27 12:11:29;;;;;;;;;;;;;;;-144.99;100.00;52199.44;5065594;28;20311;-72
2022/06/27 12:13:59;;;;;;;;;;;;;;;-144.99;100.00;52203.50;5066215;28;19920;-73
2022/06/27 12:16:27;;;;;;;;;;;;;;;-144.99;100.00;52183.13;5064980;28;19986;-71
2022/06/27 12:18:54;;;;;;;;;;;;;;;-144.99;100.00;52174.97;5063110;28;20275;-71
2022/06/27 12:21:21;;;;;;;;;;;;;;;-144.99;100.00;52181.09;5066116;28;20057;-72
2022/06/27 12:23:48;;;;;;;;;;;;;;;-144.99;100.00;52207.59;5062771;28;19920;-71
2022/06/27 12:26:15;;;;;;;;;;;;;;;-144.99;100.00;52203.50;5062383;28;20034;-70
2022/06/27 12:28:42;;;;;;;;;;;;;;;-144.99;100.00;52207.59;5061016;28;20367;-70
2022/06/27 12:31:08;;;;;;;;;;;;;;;-144.99;100.00;52199.44;5061832;28;20278;-72
2022/06/27 12:33:36;;;;;;;;;;;;;;;-144.99;100.00;52252.44;5066060;28;20387;-72